createdAt,value
2023-05-18T00:00:16.051Z,99.00
2023-05-18T00:03:04.581Z,99.55
2023-05-18T00:05:34.282Z,95.32
2023-05-18T00:08:02.786Z,93.05
2023-05-18T00:10:30.969Z,93.05
2023-05-18T00:13:00.476Z,95.82
2023-05-18T00:15:28.653Z,85.95
2023-05-18T00:17:57.272Z,87.07
2023-05-18T00:20:26.530Z,85.80
2023-05-18T00:22:54.768Z,88.15
2023-05-18T00:25:22.735Z,93.60
2023-05-18T00:27:51.930Z,92.57
2023-05-18T00:30:21.858Z,93.43
2023-05-18T00:32:50.743Z,98.68
2023-05-18T00:35:18.686Z,83.10
2023-05-18T00:37:46.846Z,85.10
2023-05-18T00:40:14.939Z,100.63
2023-05-18T00:42:43.101Z,96.93
2023-05-18T00:45:11.591Z,96.82
2023-05-18T00:47:41.413Z,95.53
2023-05-18T00:50:09.965Z,95.35
2023-05-18T00:52:38.802Z,88.82
2023-05-18T00:55:07.817Z,95.40
2023-05-18T00:57:36.704Z,93.38
2023-05-18T01:00:07.304Z,104.90
2023-05-18T01:02:37.077Z,103.00
2023-05-18T01:05:07.030Z,94.80
2023-05-18T01:07:35.206Z,97.28
2023-05-18T01:10:03.592Z,107.85
2023-05-18T01:12:37.222Z,93.78
2023-05-18T01:15:09.759Z,94.40
2023-05-18T01:17:49.641Z,86.75
2023-05-18T01:20:23.631Z,85.85
2023-05-18T01:23:13.973Z,76.10
2023-05-18T01:25:49.457Z,78.55
2023-05-18T01:28:22.012Z,85.45
2023-05-18T01:30:50.017Z,85.22
2023-05-18T01:33:18.291Z,83.47
2023-05-18T01:35:48.318Z,88.28
2023-05-18T01:38:18.096Z,89.13
2023-05-18T01:40:52.761Z,92.03
2023-05-18T01:43:25.040Z,76.05
2023-05-18T01:45:55.134Z,79.90
2023-05-18T01:48:25.568Z,96.85
2023-05-18T01:50:57.303Z,83.07
2023-05-18T01:53:27.577Z,84.05
2023-05-18T01:55:56.080Z,79.43
2023-05-18T01:58:26.418Z,73.00
2023-05-18T02:00:54.398Z,78.20
2023-05-18T02:03:23.363Z,74.95
2023-05-18T02:05:51.334Z,69.72
2023-05-18T02:08:19.495Z,77.32
2023-05-18T02:10:47.364Z,74.10
2023-05-18T02:13:15.538Z,78.10
2023-05-18T02:15:45.066Z,63.63
2023-05-18T02:18:13.365Z,66.28
2023-05-18T02:20:41.661Z,69.95
2023-05-18T02:23:09.797Z,68.30
2023-05-18T02:25:38.616Z,61.42
2023-05-18T02:28:06.783Z,64.68
2023-05-18T02:30:34.787Z,60.55
2023-05-18T02:33:04.814Z,63.25
2023-05-18T02:35:32.981Z,59.20
2023-05-18T02:38:02.548Z,64.20
2023-05-18T02:40:30.448Z,72.32
2023-05-18T02:42:58.598Z,62.97
2023-05-18T02:45:26.495Z,70.53
2023-05-18T02:47:54.815Z,62.72
2023-05-18T02:50:24.205Z,73.43
2023-05-18T02:52:52.394Z,71.65
2023-05-18T02:55:20.287Z,67.35
2023-05-18T02:57:48.592Z,67.57
2023-05-18T03:00:17.995Z,61.30
2023-05-18T03:02:48.412Z,69.30
2023-05-18T03:05:18.503Z,49.97
2023-05-18T03:07:50.927Z,64.60
2023-05-18T03:12:47.090Z,63.90
2023-05-18T03:15:16.125Z,60.95
2023-05-18T03:17:44.525Z,58.13
2023-05-18T03:20:15.286Z,51.42
2023-05-18T03:22:43.908Z,78.63
2023-05-18T03:25:13.147Z,58.10
2023-05-18T03:27:41.520Z,61.42
2023-05-18T03:30:10.473Z,49.25
2023-05-18T03:32:38.623Z,52.53
2023-05-18T03:35:07.298Z,55.33
2023-05-18T03:37:35.434Z,83.55
2023-05-18T03:40:11.955Z,55.13
2023-05-18T03:42:42.580Z,54.50
2023-05-18T03:45:11.940Z,68.20
2023-05-18T03:47:40.703Z,58.13
2023-05-18T03:50:09.372Z,107.07
2023-05-18T03:52:37.593Z,66.95
2023-05-18T03:55:06.680Z,67.35
2023-05-18T03:57:34.879Z,80.07
2023-05-18T04:00:07.081Z,66.35
2023-05-18T04:02:36.215Z,63.63
2023-05-18T04:05:05.364Z,130.80
2023-05-18T04:07:33.621Z,70.75
2023-05-18T04:10:01.563Z,60.00
2023-05-18T04:12:29.764Z,60.25
2023-05-18T04:14:58.194Z,61.08
2023-05-18T04:17:27.897Z,60.80
2023-05-18T04:19:55.922Z,62.90
2023-05-18T04:22:24.090Z,57.65
2023-05-18T04:24:55.179Z,69.88
2023-05-18T04:27:23.397Z,62.20
2023-05-18T04:29:51.892Z,60.47
2023-05-18T04:32:20.722Z,47.30
2023-05-18T04:34:50.471Z,52.42
2023-05-18T04:37:18.897Z,45.47
2023-05-18T04:39:47.364Z,42.83
2023-05-18T04:42:18.444Z,52.80
2023-05-18T04:44:48.837Z,38.55
2023-05-18T04:47:17.082Z,43.17
2023-05-18T04:49:45.031Z,43.70
2023-05-18T04:52:14.981Z,35.30
2023-05-18T04:54:43.241Z,33.63
2023-05-18T04:57:11.605Z,31.92
2023-05-18T04:59:39.833Z,24.88
2023-05-18T05:02:08.430Z,20.67
2023-05-18T05:04:36.418Z,25.60
2023-05-18T05:07:04.655Z,17.10
2023-05-18T05:09:33.903Z,19.15
2023-05-18T05:12:02.112Z,15.43
2023-05-18T05:14:30.028Z,17.98
2023-05-18T05:16:58.163Z,23.02
2023-05-18T05:19:26.147Z,17.20
2023-05-18T05:21:54.376Z,18.55
2023-05-18T05:24:22.479Z,14.80
2023-05-18T05:26:52.361Z,15.57
2023-05-18T05:29:21.584Z,18.40
2023-05-18T05:31:49.953Z,18.55
2023-05-18T05:34:18.168Z,21.23
2023-05-18T05:36:46.445Z,16.85
2023-05-18T05:39:14.616Z,15.63
2023-05-18T05:41:43.127Z,16.02
2023-05-18T05:44:12.829Z,22.75
2023-05-18T05:46:41.245Z,17.90
2023-05-18T05:49:09.393Z,22.90
2023-05-18T05:51:37.872Z,12.23
2023-05-18T05:54:06.165Z,22.02
2023-05-18T05:56:34.848Z,17.65
2023-05-18T05:59:03.218Z,19.05
2023-05-18T06:01:34.810Z,16.42
2023-05-18T06:04:04.115Z,23.23
2023-05-18T06:06:32.456Z,21.08
2023-05-18T06:09:00.922Z,22.08
2023-05-18T06:11:29.289Z,12.82
2023-05-18T06:13:57.369Z,19.88
2023-05-18T06:16:26.094Z,14.40
2023-05-18T06:18:55.863Z,15.90
2023-05-18T06:21:24.345Z,18.85
2023-05-18T06:23:52.309Z,20.42
2023-05-18T06:26:22.071Z,21.70
2023-05-18T06:28:50.226Z,24.73
2023-05-18T06:31:19.332Z,25.35
2023-05-18T06:33:47.334Z,20.77
2023-05-18T06:36:17.164Z,28.35
2023-05-18T06:38:45.107Z,19.80
2023-05-18T06:41:13.634Z,22.75
2023-05-18T06:43:41.564Z,17.98
2023-05-18T06:46:09.750Z,13.80
2023-05-18T06:48:38.630Z,12.88
2023-05-18T06:51:06.874Z,15.57
2023-05-18T06:53:36.362Z,9.80
2023-05-18T06:56:05.247Z,11.52
2023-05-18T06:58:33.129Z,9.98
2023-05-18T07:01:02.540Z,13.85
2023-05-18T07:03:30.561Z,13.05
2023-05-18T07:05:58.856Z,9.63
2023-05-18T07:08:26.753Z,14.20
2023-05-18T07:10:57.964Z,12.40
2023-05-18T07:13:25.931Z,9.98
2023-05-18T07:15:54.203Z,10.45
2023-05-18T07:18:22.176Z,15.10
2023-05-18T07:20:50.485Z,13.75
2023-05-18T07:23:18.552Z,18.33
2023-05-18T07:25:46.815Z,10.75
2023-05-18T07:28:16.203Z,11.18
2023-05-18T07:30:44.560Z,11.93
2023-05-18T07:33:12.527Z,14.27
2023-05-18T07:35:41.090Z,16.77
2023-05-18T07:38:09.036Z,17.55
2023-05-18T07:40:37.230Z,11.13
2023-05-18T07:43:05.479Z,8.88
2023-05-18T07:45:35.252Z,7.78
2023-05-18T07:48:03.560Z,14.25
2023-05-18T07:50:31.736Z,9.57
2023-05-18T07:52:59.865Z,6.97
2023-05-18T07:55:28.182Z,7.32
2023-05-18T07:57:56.330Z,6.78
2023-05-18T08:00:25.066Z,11.35
2023-05-18T08:02:54.580Z,7.68
2023-05-18T08:05:23.314Z,8.05
2023-05-18T08:07:51.906Z,7.82
2023-05-18T08:10:20.120Z,11.50
2023-05-18T08:12:48.053Z,9.20
2023-05-18T08:15:16.981Z,5.80
2023-05-18T08:17:44.951Z,12.68
2023-05-18T08:20:14.777Z,6.90
2023-05-18T08:22:42.801Z,13.82
2023-05-18T08:25:11.504Z,7.78
2023-05-18T08:27:39.440Z,9.30
2023-05-18T08:30:08.675Z,9.45
2023-05-18T08:32:37.130Z,7.20
2023-05-18T08:35:05.957Z,9.45
2023-05-18T08:37:37.281Z,13.77
2023-05-18T08:40:07.722Z,7.88
2023-05-18T08:42:49.503Z,7.00
2023-05-18T08:45:23.759Z,10.40
2023-05-18T08:47:52.303Z,11.05
2023-05-18T08:50:24.526Z,11.60
2023-05-18T08:52:56.721Z,8.45
2023-05-18T08:57:56.619Z,6.85
2023-05-18T09:00:25.132Z,5.75
2023-05-18T09:02:53.318Z,8.05
2023-05-18T09:05:22.273Z,14.55
2023-05-18T09:07:51.221Z,8.52
2023-05-18T09:10:20.976Z,18.13
2023-05-18T09:12:50.489Z,12.45
2023-05-18T09:15:19.017Z,11.73
2023-05-18T09:17:47.163Z,10.82
2023-05-18T09:20:15.727Z,10.25
2023-05-18T09:22:43.721Z,15.77
2023-05-18T09:25:12.326Z,7.25
2023-05-18T09:27:41.778Z,10.25
2023-05-18T09:30:12.425Z,11.55
2023-05-18T09:32:40.749Z,11.30
2023-05-18T09:35:10.417Z,11.77
2023-05-18T09:37:38.454Z,8.82
2023-05-18T09:40:08.108Z,13.45
2023-05-18T09:42:42.339Z,13.45
2023-05-18T09:45:18.305Z,8.48
2023-05-18T09:47:46.616Z,14.45
2023-05-18T09:50:14.912Z,12.15
2023-05-18T09:52:43.906Z,16.30
2023-05-18T09:55:12.552Z,20.77
2023-05-18T09:57:42.782Z,11.80
2023-05-18T10:00:12.670Z,11.07
2023-05-18T10:02:41.711Z,13.82
2023-05-18T10:05:22.428Z,16.30
2023-05-18T10:07:52.189Z,9.13
2023-05-18T10:10:21.709Z,20.85
2023-05-18T10:12:52.094Z,16.33
2023-05-18T10:15:21.799Z,12.65
2023-05-18T10:17:51.277Z,12.10
2023-05-18T10:20:21.365Z,12.75
2023-05-18T10:22:49.821Z,10.50
2023-05-18T10:25:20.636Z,10.80
2023-05-18T10:27:51.507Z,8.85
2023-05-18T10:30:20.091Z,6.93
2023-05-18T10:32:49.327Z,12.30
2023-05-18T10:35:17.581Z,7.05
2023-05-18T10:37:48.505Z,10.00
2023-05-18T10:40:18.523Z,12.48
2023-05-18T10:42:47.043Z,8.73
2023-05-18T10:45:17.081Z,14.50
2023-05-18T10:47:45.779Z,12.27
2023-05-18T10:50:14.088Z,14.00
2023-05-18T10:52:42.957Z,10.73
2023-05-18T10:55:11.141Z,5.90
2023-05-18T10:57:42.090Z,10.43
2023-05-18T11:00:11.188Z,14.48
2023-05-18T11:02:42.588Z,13.68
2023-05-18T11:05:12.344Z,11.27
2023-05-18T11:07:40.479Z,9.73
2023-05-18T11:10:11.323Z,17.02
2023-05-18T11:12:39.612Z,17.45
2023-05-18T11:15:09.108Z,17.85
2023-05-18T11:17:37.139Z,19.52
2023-05-18T11:20:18.272Z,23.88
2023-05-18T11:22:48.155Z,16.80
2023-05-18T11:25:38.955Z,12.10
2023-05-18T11:28:08.370Z,7.95
2023-05-18T11:30:48.194Z,10.65
2023-05-18T11:33:18.998Z,7.10
2023-05-18T11:35:59.818Z,7.03
2023-05-18T11:38:51.696Z,7.85
2023-05-18T11:41:36.374Z,8.15
2023-05-18T11:44:22.197Z,13.27
2023-05-18T11:46:56.064Z,15.68
2023-05-18T11:49:25.920Z,8.85
2023-05-18T11:52:03.680Z,11.18
2023-05-18T11:54:36.263Z,7.57
2023-05-18T11:57:05.030Z,9.48
2023-05-18T11:59:34.352Z,12.40
2023-05-18T12:02:04.086Z,12.18
2023-05-18T12:04:33.633Z,13.43
2023-05-18T12:07:07.898Z,15.95
2023-05-18T12:09:36.250Z,18.75
2023-05-18T12:12:04.728Z,16.00
2023-05-18T12:14:33.718Z,17.17
2023-05-18T12:17:02.669Z,30.58
2023-05-18T12:19:31.105Z,20.95
2023-05-18T12:21:59.291Z,15.57
2023-05-18T12:24:28.844Z,16.55
2023-05-18T12:27:06.778Z,24.85
2023-05-18T12:29:36.039Z,15.60
2023-05-18T12:32:08.042Z,17.40
2023-05-18T12:34:36.174Z,17.38
2023-05-18T12:37:04.607Z,11.40
2023-05-18T12:39:33.975Z,13.27
2023-05-18T12:42:16.074Z,15.07
2023-05-18T12:44:45.304Z,15.63
2023-05-18T12:47:13.960Z,14.70
2023-05-18T12:49:44.601Z,12.20
2023-05-18T12:52:14.658Z,14.10
2023-05-18T12:54:59.834Z,22.48
2023-05-18T12:57:30.852Z,38.90
2023-05-18T12:59:59.324Z,32.92
2023-05-18T13:02:29.544Z,36.95
2023-05-18T13:05:05.150Z,30.35
2023-05-18T13:07:34.392Z,22.90
2023-05-18T13:10:06.714Z,29.92
2023-05-18T13:12:46.148Z,21.63
2023-05-18T13:15:16.709Z,18.42
2023-05-18T13:17:57.973Z,24.60
2023-05-18T13:20:36.307Z,17.90
2023-05-18T13:23:06.893Z,25.05
2023-05-18T13:25:36.229Z,39.10
2023-05-18T13:28:04.714Z,22.73
2023-05-18T13:30:33.345Z,12.80
2023-05-18T13:33:01.787Z,11.30
2023-05-18T13:35:30.251Z,17.83
2023-05-18T13:37:58.786Z,8.18
2023-05-18T13:40:26.847Z,6.57
2023-05-18T13:42:56.388Z,11.50
2023-05-18T13:45:24.587Z,11.02
2023-05-18T13:47:53.720Z,11.45
2023-05-18T13:50:23.026Z,14.82
2023-05-18T13:52:51.334Z,14.50
2023-05-18T13:55:19.621Z,9.32
2023-05-18T13:57:47.882Z,9.07
2023-05-18T14:00:17.981Z,7.40
2023-05-18T14:02:46.686Z,7.38
2023-05-18T14:05:16.244Z,7.90
2023-05-18T14:07:44.894Z,9.10
2023-05-18T14:10:13.708Z,9.23
2023-05-18T14:12:43.297Z,10.40
2023-05-18T14:15:13.650Z,13.00
2023-05-18T14:17:43.812Z,15.63
2023-05-18T14:20:12.729Z,11.55
2023-05-18T14:22:41.335Z,8.68
2023-05-18T14:25:09.793Z,9.05
2023-05-18T14:27:38.090Z,13.48
2023-05-18T14:30:07.277Z,11.50
2023-05-18T14:32:35.945Z,11.55
2023-05-18T14:35:05.971Z,8.60
2023-05-18T14:37:34.197Z,11.13
2023-05-18T14:40:02.105Z,12.10
2023-05-18T14:42:30.892Z,11.75
2023-05-18T14:44:58.846Z,8.77
2023-05-18T14:47:27.178Z,15.75
2023-05-18T14:49:55.156Z,11.07
2023-05-18T14:52:24.690Z,21.02
2023-05-18T14:54:52.587Z,16.35
2023-05-18T14:57:20.809Z,13.93
2023-05-18T14:59:48.730Z,12.40
2023-05-18T15:02:17.112Z,18.15
2023-05-18T15:04:45.232Z,15.57
2023-05-18T15:07:13.537Z,17.48
2023-05-18T15:09:42.810Z,21.35
2023-05-18T15:12:11.306Z,20.55
2023-05-18T15:14:39.234Z,19.90
2023-05-18T15:17:08.528Z,10.95
2023-05-18T15:19:36.654Z,12.82
2023-05-18T15:22:05.101Z,19.80
2023-05-18T15:24:33.112Z,10.73
2023-05-18T15:27:03.159Z,10.05
2023-05-18T15:29:31.248Z,12.50
2023-05-18T15:31:59.488Z,9.60
2023-05-18T15:34:27.461Z,13.52
2023-05-18T15:36:55.788Z,16.42
2023-05-18T15:39:23.727Z,12.90
2023-05-18T15:41:52.086Z,16.80
2023-05-18T15:44:21.354Z,13.75
2023-05-18T15:46:49.526Z,12.05
2023-05-18T15:49:18.644Z,15.85
2023-05-18T15:51:46.950Z,13.00
2023-05-18T15:54:14.899Z,15.00
2023-05-18T15:56:43.102Z,15.40
2023-05-18T15:59:11.179Z,13.02
2023-05-18T16:01:41.116Z,12.43
2023-05-18T16:04:09.193Z,13.88
2023-05-18T16:06:37.881Z,14.63
2023-05-18T16:09:05.885Z,11.55
2023-05-18T16:11:35.894Z,15.40
2023-05-18T16:14:04.088Z,8.02
2023-05-18T16:16:32.462Z,8.80
2023-05-18T16:19:03.018Z,9.05
2023-05-18T16:21:31.682Z,11.30
2023-05-18T16:24:00.138Z,14.77
2023-05-18T16:26:28.416Z,21.25
2023-05-18T16:28:56.488Z,9.52
2023-05-18T16:31:24.812Z,12.15
2023-05-18T16:33:53.085Z,16.35
2023-05-18T16:36:24.153Z,19.17
2023-05-18T16:38:52.152Z,18.48
2023-05-18T16:41:21.907Z,14.13
2023-05-18T16:43:49.888Z,12.82
2023-05-18T16:46:19.852Z,12.27
2023-05-18T16:48:47.868Z,17.45
2023-05-18T16:51:16.141Z,11.23
2023-05-18T16:53:45.501Z,13.57
2023-05-18T16:56:13.710Z,12.23
2023-05-18T16:58:41.665Z,11.50
2023-05-18T17:01:19.392Z,11.77
2023-05-18T17:03:54.510Z,11.38
2023-05-18T17:06:22.738Z,15.05
2023-05-18T17:08:57.425Z,35.05
2023-05-18T17:11:27.483Z,19.17
2023-05-18T17:13:56.153Z,16.48
2023-05-18T17:16:26.415Z,16.48
2023-05-18T17:18:54.839Z,19.13
2023-05-18T17:21:23.825Z,24.15
2023-05-18T17:23:53.132Z,25.27
2023-05-18T17:26:21.496Z,21.65
2023-05-18T17:28:49.462Z,18.27
2023-05-18T17:31:17.871Z,14.95
2023-05-18T17:33:47.204Z,13.32
2023-05-18T17:36:16.213Z,32.47
2023-05-18T17:38:44.106Z,22.80
2023-05-18T17:41:13.836Z,26.48
2023-05-18T17:43:41.782Z,29.02
2023-05-18T17:46:09.975Z,29.52
2023-05-18T17:48:38.094Z,22.65
2023-05-18T17:51:07.185Z,15.50
2023-05-18T17:53:35.079Z,22.35
2023-05-18T17:56:03.478Z,10.35
2023-05-18T17:58:32.793Z,12.15
2023-05-18T18:01:01.187Z,8.38
2023-05-18T18:03:29.189Z,8.40
2023-05-18T18:05:57.487Z,8.30
2023-05-18T18:08:28.252Z,14.50
2023-05-18T18:10:56.792Z,10.98
2023-05-18T18:13:24.770Z,12.15
2023-05-18T18:15:54.603Z,15.98
2023-05-18T18:18:23.307Z,20.88
2023-05-18T18:20:51.803Z,17.02
2023-05-18T18:23:19.735Z,18.13
2023-05-18T18:25:47.986Z,23.38
2023-05-18T18:28:16.023Z,22.67
2023-05-18T18:30:44.786Z,18.75
2023-05-18T18:33:15.147Z,15.20
2023-05-18T18:35:43.815Z,16.75
2023-05-18T18:38:12.861Z,19.48
2023-05-18T18:40:41.857Z,15.25
2023-05-18T18:43:09.835Z,17.15
2023-05-18T18:45:38.115Z,17.95
2023-05-18T18:48:06.968Z,19.15
2023-05-18T18:50:36.545Z,12.93
2023-05-18T18:53:04.572Z,21.98
2023-05-18T18:55:33.020Z,19.92
2023-05-18T18:58:01.418Z,19.40
2023-05-18T19:00:29.904Z,18.60
2023-05-18T19:02:57.932Z,15.48
2023-05-18T19:05:26.200Z,17.63
2023-05-18T19:07:56.070Z,17.33
2023-05-18T19:10:25.388Z,26.80
2023-05-18T19:12:53.970Z,16.92
2023-05-18T19:15:22.250Z,23.13
2023-05-18T19:17:52.010Z,18.73
2023-05-18T19:20:20.807Z,24.20
2023-05-18T19:22:48.792Z,22.80
2023-05-18T19:25:18.475Z,21.38
2023-05-18T19:27:46.464Z,25.90
2023-05-18T19:30:16.515Z,27.17
2023-05-18T19:32:44.531Z,24.25
2023-05-18T19:35:12.802Z,20.58
2023-05-18T19:37:40.960Z,19.10
2023-05-18T19:40:09.634Z,23.67
2023-05-18T19:42:39.232Z,21.48
2023-05-18T19:45:08.116Z,30.98
2023-05-18T19:47:36.273Z,22.30
2023-05-18T19:50:06.115Z,25.20
2023-05-18T19:52:34.093Z,33.38
2023-05-18T19:55:02.828Z,35.33
2023-05-18T19:57:30.776Z,28.20
2023-05-18T20:00:00.327Z,38.65
2023-05-18T20:02:28.471Z,49.05
2023-05-18T20:04:56.807Z,58.03
2023-05-18T20:07:24.781Z,22.55
2023-05-18T20:09:53.094Z,26.08
2023-05-18T20:12:21.196Z,27.38
2023-05-18T20:14:49.399Z,25.17
2023-05-18T20:17:19.036Z,29.40
2023-05-18T20:19:50.724Z,30.80
2023-05-18T20:22:19.179Z,26.45
2023-05-18T20:24:48.862Z,29.25
2023-05-18T20:27:17.330Z,28.80
2023-05-18T20:29:46.189Z,23.23
2023-05-18T20:32:14.150Z,27.90
2023-05-18T20:34:44.448Z,27.08
2023-05-18T20:37:13.833Z,29.85
2023-05-18T20:39:50.347Z,29.70
2023-05-18T20:42:21.666Z,30.83
2023-05-18T20:44:52.122Z,33.45
2023-05-18T20:47:21.029Z,25.20
2023-05-18T20:49:51.009Z,28.05
2023-05-18T20:52:18.920Z,27.77
2023-05-18T20:54:47.874Z,29.15
2023-05-18T20:57:15.990Z,26.90
2023-05-18T20:59:44.254Z,26.17
2023-05-18T21:02:12.153Z,24.98
2023-05-18T21:04:40.701Z,38.47
2023-05-18T21:07:10.279Z,30.92
2023-05-18T21:09:38.492Z,37.38
2023-05-18T21:12:07.177Z,34.67
2023-05-18T21:14:35.447Z,30.67
2023-05-18T21:17:03.366Z,29.98
2023-05-18T21:19:31.644Z,31.73
2023-05-18T21:21:59.613Z,27.77
2023-05-18T21:24:29.133Z,25.85
2023-05-18T21:26:57.090Z,30.40
2023-05-18T21:29:25.331Z,28.15
2023-05-18T21:31:53.387Z,31.10
2023-05-18T21:34:21.613Z,29.73
2023-05-18T21:36:49.570Z,33.47
2023-05-18T21:39:17.743Z,34.03
2023-05-18T21:41:47.111Z,31.13
2023-05-18T21:44:15.545Z,30.10
2023-05-18T21:46:43.637Z,27.02
2023-05-18T21:49:12.477Z,28.55
2023-05-18T21:51:40.442Z,35.15
2023-05-18T21:54:08.625Z,42.38
2023-05-18T21:56:36.826Z,33.95
2023-05-18T21:59:06.479Z,37.63
2023-05-18T22:01:34.539Z,33.75
2023-05-18T22:04:03.129Z,31.45
2023-05-18T22:06:31.139Z,31.88
2023-05-18T22:08:59.326Z,34.22
2023-05-18T22:11:27.290Z,42.28
2023-05-18T22:13:55.767Z,29.10
2023-05-18T22:16:25.067Z,32.13
2023-05-18T22:18:53.271Z,26.52
2023-05-18T22:21:21.228Z,28.63
2023-05-18T22:23:49.738Z,31.70
2023-05-18T22:26:20.104Z,33.47
2023-05-18T22:28:48.312Z,26.92
2023-05-18T22:31:16.337Z,22.25
2023-05-18T22:33:45.886Z,29.42
2023-05-18T22:36:14.626Z,21.48
2023-05-18T22:38:43.818Z,27.67
2023-05-18T22:41:11.770Z,22.73
2023-05-18T22:43:40.069Z,19.88
2023-05-18T22:46:08.373Z,21.17
2023-05-18T22:48:36.583Z,14.35
2023-05-18T22:51:06.383Z,25.33
2023-05-18T22:53:34.823Z,19.08
2023-05-18T22:56:02.760Z,17.13
2023-05-18T22:58:31.195Z,22.60
2023-05-18T23:00:59.270Z,15.32
2023-05-18T23:03:27.440Z,17.55
2023-05-18T23:05:56.293Z,14.32
2023-05-18T23:08:26.062Z,21.15
2023-05-18T23:10:54.336Z,19.73
2023-05-18T23:13:23.333Z,19.80
2023-05-18T23:15:51.408Z,15.25
2023-05-18T23:18:19.569Z,21.05
2023-05-18T23:20:50.886Z,22.45
2023-05-18T23:23:20.375Z,24.38
2023-05-18T23:25:49.718Z,24.27
2023-05-18T23:28:17.971Z,22.48
2023-05-18T23:30:46.002Z,19.60
2023-05-18T23:33:16.201Z,23.75
2023-05-18T23:35:46.705Z,18.33
2023-05-18T23:38:18.566Z,21.98
2023-05-18T23:40:46.861Z,20.38
2023-05-18T23:43:17.053Z,28.23
2023-05-18T23:45:45.567Z,27.92
2023-05-18T23:48:14.616Z,31.30
2023-05-18T23:50:43.097Z,25.40
2023-05-18T23:53:13.583Z,30.75
2023-05-18T23:55:41.853Z,32.17
2023-05-18T23:58:10.685Z,29.73
